createdAt,value
2019-05-23T00:01:56.318Z,99.99
2019-05-23T00:02:56.275Z,99.99
2019-05-23T00:03:56.242Z,99.99
2019-05-23T00:04:56.259Z,99.99
2019-05-23T00:05:56.210Z,99.99
2019-05-23T00:06:56.182Z,99.99
2019-05-23T00:07:56.153Z,99.99
2019-05-23T00:08:56.138Z,99.99
2019-05-23T00:09:56.118Z,99.99
2019-05-23T00:10:56.104Z,99.99
2019-05-23T00:11:56.047Z,99.99
2019-05-23T00:12:56.013Z,99.99
2019-05-23T00:13:56.010Z,99.99
2019-05-23T00:14:55.964Z,99.99
2019-05-23T00:15:55.969Z,99.99
2019-05-23T00:16:55.938Z,99.99
2019-05-23T00:17:55.958Z,99.99
2019-05-23T00:18:55.900Z,99.99
2019-05-23T00:19:55.848Z,99.99
2019-05-23T00:20:55.818Z,99.99
2019-05-23T00:21:55.802Z,99.99
2019-05-23T00:22:55.774Z,99.99
2019-05-23T00:23:55.770Z,99.99
2019-05-23T00:24:55.753Z,99.99
2019-05-23T00:25:55.715Z,99.99
2019-05-23T00:26:55.676Z,99.99
2019-05-23T00:27:55.649Z,99.99
2019-05-23T00:29:08.984Z,99.99
2019-05-23T00:29:55.594Z,99.99
2019-05-23T00:30:55.556Z,99.99
2019-05-23T00:31:55.561Z,99.99
2019-05-23T00:32:55.532Z,99.99
2019-05-23T00:33:55.513Z,99.99
2019-05-23T00:34:55.457Z,99.99
2019-05-23T00:35:55.436Z,99.99
2019-05-23T00:36:55.418Z,99.99
2019-05-23T00:37:55.395Z,99.99
2019-05-23T00:38:55.346Z,99.99
2019-05-23T00:39:55.327Z,99.99
2019-05-23T00:40:55.310Z,99.99
2019-05-23T00:41:55.287Z,99.99
2019-05-23T00:42:55.250Z,99.99
2019-05-23T00:43:55.247Z,99.99
2019-05-23T00:44:55.200Z,99.99
2019-05-23T00:45:55.164Z,99.99
2019-05-23T00:46:55.142Z,99.99
2019-05-23T00:47:55.127Z,99.99
2019-05-23T00:48:55.125Z,99.99
2019-05-23T00:49:55.086Z,99.99
2019-05-23T00:50:55.067Z,99.99
2019-05-23T00:51:55.038Z,99.99
2019-05-23T00:52:55.039Z,99.99
2019-05-23T00:53:54.968Z,99.99
2019-05-23T00:54:54.941Z,99.99
2019-05-23T00:55:54.909Z,99.99
2019-05-23T00:56:54.923Z,99.99
2019-05-23T00:57:54.884Z,99.99
2019-05-23T00:58:54.849Z,99.99
2019-05-23T00:59:54.813Z,99.99
2019-05-23T01:00:54.790Z,99.99
2019-05-23T01:01:54.757Z,99.99
2019-05-23T01:02:54.744Z,99.99
2019-05-23T01:03:54.715Z,99.99
2019-05-23T01:04:54.727Z,99.99
2019-05-23T01:05:54.680Z,99.99
2019-05-23T01:06:54.675Z,99.99
2019-05-23T01:07:54.614Z,99.99
2019-05-23T01:08:54.595Z,99.99
2019-05-23T01:09:54.586Z,99.99
2019-05-23T01:10:54.547Z,99.99
2019-05-23T01:11:54.534Z,99.99
2019-05-23T01:12:54.498Z,99.99
2019-05-23T01:13:54.467Z,99.99
2019-05-23T01:14:54.422Z,99.99
2019-05-23T01:15:54.412Z,99.99
2019-05-23T01:16:54.370Z,99.99
2019-05-23T01:17:54.374Z,99.99
2019-05-23T01:18:54.325Z,99.99
2019-05-23T01:19:54.317Z,99.99
2019-05-23T01:20:54.279Z,99.99
2019-05-23T01:21:54.267Z,99.99
2019-05-23T01:22:54.235Z,99.99
2019-05-23T01:23:54.197Z,99.99
2019-05-23T01:24:54.176Z,99.99
2019-05-23T01:25:54.149Z,99.99
2019-05-23T01:26:54.122Z,99.99
2019-05-23T01:27:54.090Z,99.99
2019-05-23T01:28:54.062Z,99.99
2019-05-23T01:29:54.046Z,99.99
2019-05-23T01:30:54.026Z,99.99
2019-05-23T01:31:53.996Z,99.99
2019-05-23T01:32:53.958Z,99.99
2019-05-23T01:33:53.935Z,99.99
2019-05-23T01:34:53.912Z,99.99
2019-05-23T01:35:53.899Z,99.99
2019-05-23T01:36:53.868Z,99.99
2019-05-23T01:37:53.854Z,99.99
2019-05-23T01:38:53.820Z,99.99
2019-05-23T01:39:53.782Z,99.99
2019-05-23T01:40:53.782Z,99.99
2019-05-23T01:41:53.794Z,99.99
2019-05-23T01:42:53.717Z,99.99
2019-05-23T01:43:53.683Z,99.99
2019-05-23T01:44:53.685Z,99.99
2019-05-23T01:45:53.636Z,99.99
2019-05-23T01:46:53.608Z,99.99
2019-05-23T01:47:53.582Z,99.99
2019-05-23T01:48:53.542Z,99.99
2019-05-23T01:49:53.531Z,99.99
2019-05-23T01:50:53.511Z,99.99
2019-05-23T01:51:53.475Z,99.99
2019-05-23T01:52:53.466Z,99.99
2019-05-23T01:53:53.412Z,99.99
2019-05-23T01:54:53.396Z,99.99
2019-05-23T01:55:53.378Z,99.99
2019-05-23T01:56:53.343Z,99.99
2019-05-23T01:57:53.314Z,99.99
2019-05-23T01:58:53.289Z,99.99
2019-05-23T02:00:08.359Z,99.99
2019-05-23T02:00:53.252Z,99.99
2019-05-23T02:01:53.223Z,99.99
2019-05-23T02:02:53.197Z,99.99
2019-05-23T02:03:53.169Z,99.99
2019-05-23T02:04:53.156Z,99.99
2019-05-23T02:05:53.125Z,99.99
2019-05-23T02:06:53.081Z,99.99
2019-05-23T02:07:53.060Z,99.99
2019-05-23T02:08:53.036Z,99.99
2019-05-23T02:09:53.031Z,99.99
2019-05-23T02:10:53.018Z,99.99
2019-05-23T02:11:52.958Z,99.99
2019-05-23T02:12:52.948Z,99.99
2019-05-23T02:13:52.933Z,99.99
2019-05-23T02:14:52.886Z,99.99
2019-05-23T02:15:52.858Z,99.99
2019-05-23T02:16:52.819Z,99.99
2019-05-23T02:17:52.823Z,99.99
2019-05-23T02:18:52.774Z,99.99
2019-05-23T02:19:52.802Z,99.99
2019-05-23T02:20:52.746Z,99.99
2019-05-23T02:21:52.714Z,99.99
2019-05-23T02:22:52.682Z,99.99
2019-05-23T02:23:52.643Z,99.99
2019-05-23T02:24:52.658Z,99.99
2019-05-23T02:25:52.632Z,99.99
2019-05-23T02:26:52.614Z,99.99
2019-05-23T02:27:52.584Z,99.99
2019-05-23T02:28:52.548Z,99.99
2019-05-23T02:29:52.492Z,99.99
2019-05-23T02:30:52.472Z,99.99
2019-05-23T02:31:52.446Z,99.99
2019-05-23T02:32:52.441Z,99.99
2019-05-23T02:33:52.382Z,99.99
2019-05-23T02:34:52.400Z,99.99
2019-05-23T02:35:52.332Z,99.99
2019-05-23T02:36:52.304Z,99.99
2019-05-23T02:37:52.293Z,99.99
2019-05-23T02:38:52.293Z,99.99
2019-05-23T02:39:52.236Z,99.99
2019-05-23T02:40:52.251Z,99.99
2019-05-23T02:41:52.187Z,99.99
2019-05-23T02:42:52.169Z,99.99
2019-05-23T02:43:52.137Z,99.99
2019-05-23T02:44:52.109Z,99.99
2019-05-23T02:45:52.087Z,99.99
2019-05-23T02:46:52.063Z,99.99
2019-05-23T02:47:52.029Z,99.99
2019-05-23T02:48:52.004Z,99.99
2019-05-23T02:49:51.977Z,99.99
2019-05-23T02:50:51.964Z,99.99
2019-05-23T02:51:51.953Z,99.99
2019-05-23T02:52:51.893Z,99.99
2019-05-23T02:53:51.896Z,99.99
2019-05-23T02:54:51.850Z,99.99
2019-05-23T02:55:51.809Z,99.99
2019-05-23T02:56:51.820Z,99.99
2019-05-23T02:57:51.856Z,99.99
2019-05-23T02:58:51.765Z,99.99
2019-05-23T02:59:51.765Z,99.99
2019-05-23T03:00:54.918Z,99.99
2019-05-23T03:01:51.683Z,99.99
2019-05-23T03:02:51.661Z,99.99
2019-05-23T03:03:51.636Z,99.99
2019-05-23T03:04:51.623Z,99.99
2019-05-23T03:05:51.578Z,99.99
2019-05-23T03:06:51.565Z,99.99
2019-05-23T03:07:51.599Z,99.99
2019-05-23T03:08:51.494Z,99.99
2019-05-23T03:09:51.474Z,99.99
2019-05-23T03:10:51.435Z,99.99
2019-05-23T03:11:51.430Z,99.99
2019-05-23T03:12:51.380Z,99.99
2019-05-23T03:13:51.348Z,99.99
2019-05-23T03:14:51.326Z,99.99
2019-05-23T03:15:51.309Z,99.99
2019-05-23T03:16:51.288Z,99.99
2019-05-23T03:17:51.247Z,99.99
2019-05-23T03:18:51.233Z,99.99
2019-05-23T03:19:51.215Z,99.99
2019-05-23T03:20:51.183Z,99.99
2019-05-23T03:21:51.160Z,99.99
2019-05-23T03:22:51.128Z,99.99
2019-05-23T03:23:51.095Z,99.99
2019-05-23T03:24:51.075Z,99.99
2019-05-23T03:25:59.689Z,99.99
2019-05-23T03:27:44.393Z,99.99
2019-05-23T03:28:43.886Z,99.99
2019-05-23T03:30:49.781Z,99.99
2019-05-23T03:31:49.754Z,99.99
2019-05-23T03:33:43.147Z,99.99
2019-05-23T03:34:43.091Z,99.99
2019-05-23T03:36:57.841Z,99.99
2019-05-23T03:37:50.547Z,99.99
2019-05-23T03:39:44.442Z,99.99
2019-05-23T03:40:44.422Z,99.99
2019-05-23T03:42:37.494Z,99.99
2019-05-23T03:43:37.236Z,99.99
2019-05-23T03:45:33.130Z,99.99
2019-05-23T03:46:33.117Z,99.99
2019-05-23T03:48:28.036Z,99.99
2019-05-23T03:49:27.440Z,99.99
2019-05-23T03:51:20.324Z,99.99
2019-05-23T03:52:20.294Z,99.99
2019-05-23T03:54:29.233Z,99.99
2019-05-23T03:55:29.130Z,99.99
2019-05-23T03:57:25.834Z,99.99
2019-05-23T03:58:23.457Z,99.99
2019-05-23T04:00:16.358Z,99.99
2019-05-23T04:01:16.346Z,99.99
2019-05-23T04:02:16.301Z,99.99
2019-05-23T04:03:16.282Z,99.99
2019-05-23T04:04:16.253Z,99.99
2019-05-23T04:05:16.217Z,99.99
2019-05-23T04:06:16.203Z,99.99
2019-05-23T04:07:16.173Z,99.99
2019-05-23T04:08:16.154Z,99.99
2019-05-23T04:09:16.129Z,99.99
2019-05-23T04:10:16.091Z,99.99
2019-05-23T04:11:16.073Z,99.99
2019-05-23T04:12:16.045Z,99.99
2019-05-23T04:13:16.021Z,99.99
2019-05-23T04:14:16.003Z,99.99
2019-05-23T04:15:15.971Z,99.99
2019-05-23T04:16:15.943Z,99.99
2019-05-23T04:17:15.920Z,99.99
2019-05-23T04:18:15.893Z,99.99
2019-05-23T04:19:15.870Z,99.99
2019-05-23T04:20:15.845Z,99.99
2019-05-23T04:21:15.817Z,99.99
2019-05-23T04:22:15.801Z,99.99
2019-05-23T04:23:15.775Z,99.99
2019-05-23T04:24:15.735Z,99.99
2019-05-23T04:25:15.740Z,99.99
2019-05-23T04:26:15.789Z,99.99
2019-05-23T04:27:15.669Z,99.99
2019-05-23T04:28:15.641Z,99.99
2019-05-23T04:29:15.610Z,99.99
2019-05-23T04:30:15.594Z,99.99
2019-05-23T04:31:15.576Z,99.99
2019-05-23T04:32:15.544Z,99.99
2019-05-23T04:33:15.517Z,99.99
2019-05-23T04:34:15.491Z,99.99
2019-05-23T04:35:15.469Z,99.99
2019-05-23T04:36:15.445Z,99.99
2019-05-23T04:37:15.426Z,99.99
2019-05-23T04:38:15.397Z,99.99
2019-05-23T04:39:15.368Z,99.99
2019-05-23T04:40:15.340Z,99.99
2019-05-23T04:41:15.331Z,99.99
2019-05-23T04:42:15.297Z,99.99
2019-05-23T04:43:15.280Z,99.99
2019-05-23T04:44:15.247Z,99.99
2019-05-23T04:45:15.215Z,99.99
2019-05-23T04:46:15.198Z,99.99
2019-05-23T04:47:15.173Z,99.99
2019-05-23T04:48:15.149Z,99.99
2019-05-23T04:49:15.139Z,99.99
2019-05-23T04:50:15.132Z,99.99
2019-05-23T04:51:15.074Z,99.99
2019-05-23T04:52:15.055Z,99.99
2019-05-23T04:53:15.037Z,99.99
2019-05-23T04:54:15.003Z,99.99
2019-05-23T04:55:14.976Z,99.99
2019-05-23T04:56:14.952Z,99.99
2019-05-23T04:57:14.930Z,99.99
2019-05-23T04:58:14.900Z,99.99
2019-05-23T04:59:14.881Z,99.99
2019-05-23T05:00:14.857Z,99.99
2019-05-23T05:01:14.828Z,99.99
2019-05-23T05:02:25.484Z,99.99
2019-05-23T05:03:17.859Z,99.99
2019-05-23T05:04:14.756Z,99.99
2019-05-23T05:05:14.735Z,99.99
2019-05-23T05:06:29.391Z,99.99
2019-05-23T05:08:19.583Z,99.99
2019-05-23T05:09:18.774Z,99.99
2019-05-23T05:11:22.667Z,99.99
2019-05-23T05:12:22.647Z,99.99
2019-05-23T05:13:22.631Z,99.99
2019-05-23T05:14:22.608Z,99.99
2019-05-23T05:15:22.568Z,99.84
2019-05-23T05:16:22.541Z,99.17
2019-05-23T05:17:22.512Z,98.22
2019-05-23T05:18:22.484Z,97.93
2019-05-23T05:19:22.467Z,98.50
2019-05-23T05:20:22.516Z,98.18
2019-05-23T05:21:22.449Z,97.13
2019-05-23T05:22:22.409Z,96.08
2019-05-23T05:23:22.378Z,96.65
2019-05-23T05:24:22.353Z,96.08
2019-05-23T05:25:22.317Z,95.03
2019-05-23T05:26:22.303Z,95.12
2019-05-23T05:27:22.277Z,95.51
2019-05-23T05:28:22.267Z,95.70
2019-05-23T05:29:22.241Z,95.70
2019-05-23T05:30:22.213Z,95.89
2019-05-23T05:31:22.204Z,94.89
2019-05-23T05:32:22.179Z,94.13
2019-05-23T05:33:22.160Z,93.84
2019-05-23T05:34:22.120Z,93.22
2019-05-23T05:35:22.095Z,92.93
2019-05-23T05:36:22.096Z,92.27
2019-05-23T05:37:22.057Z,91.17
2019-05-23T05:38:22.036Z,91.22
2019-05-23T05:39:22.008Z,91.31
2019-05-23T05:40:21.981Z,91.46
2019-05-23T05:41:22.007Z,90.79
2019-05-23T05:42:21.959Z,90.03
2019-05-23T05:43:21.931Z,88.50
2019-05-23T05:44:22.062Z,87.83
2019-05-23T05:45:21.887Z,87.11
2019-05-23T05:46:21.875Z,87.59
2019-05-23T05:47:21.896Z,85.21
2019-05-23T05:48:21.821Z,84.82
2019-05-23T05:49:21.803Z,84.10
2019-05-23T05:50:21.803Z,84.00
2019-05-23T05:51:21.792Z,83.24
2019-05-23T05:52:21.756Z,84.29
2019-05-23T05:53:21.734Z,84.82
2019-05-23T05:54:21.738Z,86.06
2019-05-23T05:55:21.693Z,88.16
2019-05-23T05:56:21.673Z,87.82
2019-05-23T05:57:21.661Z,87.15
2019-05-23T05:58:21.658Z,86.58
2019-05-23T05:59:21.616Z,85.82
2019-05-23T06:00:21.608Z,85.63
2019-05-23T06:01:33.365Z,85.82
2019-05-23T06:02:21.609Z,85.87
2019-05-23T06:03:21.543Z,86.44
2019-05-23T06:04:21.543Z,87.68
2019-05-23T06:05:21.520Z,87.78
2019-05-23T06:06:21.551Z,88.73
2019-05-23T06:07:21.509Z,88.83
2019-05-23T06:08:21.473Z,89.40
2019-05-23T06:09:21.456Z,88.54
2019-05-23T06:10:21.430Z,88.78
2019-05-23T06:11:21.418Z,88.44
2019-05-23T06:12:21.403Z,86.63
2019-05-23T06:13:21.420Z,86.57
2019-05-23T06:14:21.388Z,85.05
2019-05-23T06:15:21.401Z,83.84
2019-05-23T06:16:21.347Z,82.89
2019-05-23T06:17:21.312Z,82.41
2019-05-23T06:18:21.306Z,81.68
2019-05-23T06:19:21.285Z,81.68
2019-05-23T06:20:21.261Z,79.77
2019-05-23T06:21:21.278Z,80.69
2019-05-23T06:22:21.233Z,81.74
2019-05-23T06:23:21.234Z,81.21
2019-05-23T06:24:39.491Z,80.16
2019-05-23T06:25:21.261Z,79.39
2019-05-23T06:26:21.224Z,79.29
2019-05-23T06:27:21.155Z,79.68
2019-05-23T06:28:21.279Z,79.33
2019-05-23T06:29:21.140Z,77.13
2019-05-23T06:30:21.168Z,76.18
2019-05-23T06:31:21.115Z,75.98
2019-05-23T06:32:21.095Z,74.22
2019-05-23T06:33:23.603Z,74.99
2019-05-23T06:34:21.094Z,75.47
2019-05-23T06:35:21.081Z,75.70
2019-05-23T06:36:21.066Z,74.61
2019-05-23T06:37:21.027Z,74.74
2019-05-23T06:38:21.004Z,74.55
2019-05-23T06:39:21.006Z,74.93
2019-05-23T06:40:20.983Z,74.58
2019-05-23T06:41:20.959Z,73.47
2019-05-23T06:42:20.939Z,73.80
2019-05-23T06:43:20.955Z,72.39
2019-05-23T06:44:20.938Z,68.88
2019-05-23T06:45:20.948Z,68.08
2019-05-23T06:46:20.898Z,68.62
2019-05-23T06:47:20.859Z,68.46
2019-05-23T06:48:20.898Z,68.75
2019-05-23T06:49:20.837Z,69.17
2019-05-23T06:50:20.857Z,68.50
2019-05-23T06:51:20.833Z,68.59
2019-05-23T06:52:20.804Z,68.21
2019-05-23T06:53:20.795Z,67.83
2019-05-23T06:54:20.817Z,67.35
2019-05-23T06:55:20.761Z,67.22
2019-05-23T06:56:29.475Z,69.17
2019-05-23T06:58:14.157Z,72.99
2019-05-23T06:59:14.147Z,73.47
2019-05-23T07:01:07.033Z,72.55
2019-05-23T07:02:07.005Z,72.64
2019-05-23T07:04:00.395Z,72.03
2019-05-23T07:05:00.338Z,72.58
2019-05-23T07:06:53.247Z,73.15
2019-05-23T07:07:53.228Z,73.91
2019-05-23T07:08:53.215Z,73.19
2019-05-23T07:09:53.201Z,72.90
2019-05-23T07:10:53.203Z,73.91
2019-05-23T07:11:53.179Z,74.33
2019-05-23T07:12:53.166Z,72.71
2019-05-23T07:13:53.158Z,74.47
2019-05-23T07:14:53.148Z,72.39
2019-05-23T07:15:53.130Z,70.29
2019-05-23T07:16:53.109Z,68.98
2019-05-23T07:17:53.101Z,69.40
2019-05-23T07:18:53.090Z,69.26
2019-05-23T07:19:53.111Z,70.67
2019-05-23T07:20:53.071Z,70.80
2019-05-23T07:21:53.052Z,71.34
2019-05-23T07:22:53.041Z,70.76
2019-05-23T07:23:53.028Z,71.69
2019-05-23T07:24:58.352Z,72.94
2019-05-23T07:25:53.008Z,72.39
2019-05-23T07:26:52.994Z,72.97
2019-05-23T07:27:53.199Z,71.44
2019-05-23T07:28:52.970Z,70.90
2019-05-23T07:29:52.951Z,69.46
2019-05-23T07:30:52.962Z,69.26
2019-05-23T07:31:52.927Z,69.59
2019-05-23T07:32:52.918Z,67.57
2019-05-23T07:34:01.930Z,67.57
2019-05-23T07:34:52.883Z,67.83
2019-05-23T07:35:52.881Z,69.33
2019-05-23T07:36:52.869Z,70.64
2019-05-23T07:37:52.852Z,71.50
2019-05-23T07:38:52.836Z,70.96
2019-05-23T07:39:52.835Z,70.70
2019-05-23T07:40:52.823Z,69.23
2019-05-23T07:41:52.812Z,69.07
2019-05-23T07:42:52.848Z,68.98
2019-05-23T07:43:52.785Z,67.83
2019-05-23T07:44:52.773Z,67.44
2019-05-23T07:45:52.754Z,67.35
2019-05-23T07:46:52.747Z,67.69
2019-05-23T07:47:52.734Z,68.12
2019-05-23T07:48:52.732Z,68.50
2019-05-23T07:49:52.724Z,67.35
2019-05-23T07:50:52.730Z,67.47
2019-05-23T07:51:52.691Z,67.67
2019-05-23T07:52:52.681Z,67.54
2019-05-23T07:53:52.673Z,67.22
2019-05-23T07:54:52.654Z,67.85
2019-05-23T07:55:52.658Z,69.87
2019-05-23T07:56:52.643Z,69.90
2019-05-23T07:59:32.088Z,66.55
2019-05-23T08:00:39.226Z,66.97
2019-05-23T08:02:26.105Z,65.14
2019-05-23T08:03:32.781Z,65.43
2019-05-23T08:05:18.427Z,65.66
2019-05-23T08:06:27.997Z,65.23
2019-05-23T08:08:12.831Z,63.92
2019-05-23T08:09:12.864Z,64.60
2019-05-23T08:11:06.198Z,63.86
2019-05-23T08:12:06.163Z,64.25
2019-05-23T08:13:59.080Z,62.99
2019-05-23T08:14:59.041Z,61.43
2019-05-23T08:16:51.977Z,60.49
2019-05-23T08:17:51.935Z,59.17
2019-05-23T08:19:57.921Z,59.27
2019-05-23T08:20:57.862Z,58.98
2019-05-23T08:23:01.335Z,59.56
2019-05-23T08:24:01.256Z,60.04
2019-05-23T08:26:00.277Z,60.08
2019-05-23T08:27:00.273Z,59.69
2019-05-23T08:29:23.744Z,60.62
2019-05-23T08:29:54.806Z,60.52
2019-05-23T08:31:49.566Z,60.72
2019-05-23T08:32:49.261Z,60.00
2019-05-23T08:34:43.578Z,56.41
2019-05-23T08:35:44.005Z,57.57
2019-05-23T08:37:38.620Z,55.65
2019-05-23T08:38:38.444Z,56.87
2019-05-23T08:39:38.530Z,57.54
2019-05-23T08:40:38.035Z,57.35
2019-05-23T08:41:38.051Z,56.20
2019-05-23T08:42:38.056Z,57.35
2019-05-23T08:43:37.943Z,58.31
2019-05-23T08:44:38.470Z,58.05
2019-05-23T08:45:38.289Z,55.45
2019-05-23T08:46:38.104Z,54.13
2019-05-23T08:47:37.967Z,55.00
2019-05-23T08:48:38.147Z,56.18
2019-05-23T08:49:38.128Z,55.29
2019-05-23T08:50:37.985Z,56.12
2019-05-23T08:51:38.087Z,56.38
2019-05-23T08:52:38.517Z,57.70
2019-05-23T08:53:37.918Z,59.63
2019-05-23T08:54:37.903Z,59.37
2019-05-23T08:55:38.012Z,57.97
2019-05-23T08:56:37.916Z,59.38
2019-05-23T08:57:37.888Z,61.55
2019-05-23T08:58:38.020Z,62.87
2019-05-23T08:59:37.870Z,64.12
2019-05-23T09:00:37.902Z,63.96
2019-05-23T09:01:37.848Z,63.48
2019-05-23T09:02:38.055Z,63.32
2019-05-23T09:03:37.844Z,62.26
2019-05-23T09:04:38.002Z,62.07
2019-05-23T09:05:37.827Z,61.40
2019-05-23T09:06:37.787Z,61.97
2019-05-23T09:07:37.800Z,62.52
2019-05-23T09:08:37.791Z,62.13
2019-05-23T09:09:37.751Z,61.58
2019-05-23T09:10:37.798Z,63.12
2019-05-23T09:11:37.735Z,61.30
2019-05-23T09:12:37.965Z,60.82
2019-05-23T09:13:37.737Z,61.68
2019-05-23T09:14:37.751Z,60.14
2019-05-23T09:15:37.696Z,58.99
2019-05-23T09:16:37.697Z,59.66
2019-05-23T09:17:52.310Z,60.14
2019-05-23T09:18:37.658Z,59.66
2019-05-23T09:19:37.688Z,59.86
2019-05-23T09:20:37.655Z,60.24
2019-05-23T09:21:37.672Z,60.05
2019-05-23T09:22:37.593Z,59.69
2019-05-23T09:23:37.606Z,58.86
2019-05-23T09:24:37.581Z,57.51
2019-05-23T09:25:37.565Z,56.67
2019-05-23T09:26:37.574Z,56.22
2019-05-23T09:27:37.619Z,54.49
2019-05-23T09:28:37.425Z,55.65
2019-05-23T09:29:37.547Z,53.65
2019-05-23T09:30:37.546Z,52.37
2019-05-23T09:31:37.487Z,52.13
2019-05-23T09:32:37.480Z,51.39
2019-05-23T09:33:37.463Z,51.87
2019-05-23T09:34:37.458Z,51.29
2019-05-23T09:35:37.445Z,49.87
2019-05-23T09:36:37.655Z,51.23
2019-05-23T09:37:39.008Z,53.70
2019-05-23T09:38:37.582Z,54.25
2019-05-23T09:39:37.814Z,55.22
2019-05-23T09:40:37.455Z,55.41
2019-05-23T09:41:37.462Z,55.12
2019-05-23T09:42:37.448Z,54.16
2019-05-23T09:43:37.416Z,53.61
2019-05-23T09:44:37.407Z,53.42
2019-05-23T09:45:37.379Z,53.39
2019-05-23T09:46:37.440Z,53.61
2019-05-23T09:47:37.367Z,53.80
2019-05-23T09:48:37.329Z,54.09
2019-05-23T09:49:37.548Z,53.68
2019-05-23T09:50:37.336Z,53.49
2019-05-23T09:51:37.370Z,54.06
2019-05-23T09:52:37.507Z,55.73
2019-05-23T09:53:38.061Z,54.96
2019-05-23T09:54:37.270Z,53.64
2019-05-23T09:55:38.541Z,53.16
2019-05-23T09:56:37.616Z,52.39
2019-05-23T09:57:37.245Z,52.22
2019-05-23T09:58:37.234Z,53.19
2019-05-23T09:59:37.431Z,52.80
2019-05-23T10:00:37.299Z,51.19
2019-05-23T10:01:37.088Z,48.52
2019-05-23T10:02:37.535Z,48.79
2019-05-23T10:03:37.563Z,49.77
2019-05-23T10:04:37.373Z,48.25
2019-05-23T10:05:43.405Z,46.42
2019-05-23T10:06:37.365Z,46.83
2019-05-23T10:07:38.807Z,47.92
2019-05-23T10:08:37.183Z,47.05
2019-05-23T10:09:37.413Z,46.66
2019-05-23T10:10:37.284Z,46.56
2019-05-23T10:11:37.166Z,47.07
2019-05-23T10:12:37.124Z,46.25
2019-05-23T10:13:39.398Z,46.71
2019-05-23T10:14:36.993Z,46.91
2019-05-23T10:15:37.095Z,46.21
2019-05-23T10:16:37.177Z,45.51
2019-05-23T10:17:37.517Z,46.71
2019-05-23T10:18:40.170Z,45.29
2019-05-23T10:19:37.390Z,45.46
2019-05-23T10:20:37.383Z,45.34
2019-05-23T10:21:36.989Z,46.57
2019-05-23T10:22:36.993Z,48.02
2019-05-23T10:23:36.997Z,48.30
2019-05-23T10:24:36.986Z,48.69
2019-05-23T10:25:36.867Z,47.99
2019-05-23T10:26:37.296Z,47.82
2019-05-23T10:27:37.308Z,48.03
2019-05-23T10:28:37.299Z,48.23
2019-05-23T10:29:37.547Z,48.13
2019-05-23T10:30:37.422Z,47.77
2019-05-23T10:31:36.940Z,46.71
2019-05-23T10:32:37.110Z,47.70
2019-05-23T10:33:36.931Z,46.25
2019-05-23T10:34:37.075Z,43.87
2019-05-23T10:35:36.909Z,44.45
2019-05-23T10:38:22.557Z,43.77
